Time;durP1;ratioP1;P1;durP2;ratioP2;P2;SDS_P1;SDS_P2;PMS_P1;PMS_P2;Temp;Humidity;BMP_temperature;BMP_pressure;BME280_temperature;BME280_humidity;BME280_pressure;Samples;Min_cycle;Max_cycle;Signal;HPM_P1;HPM_P2
2023/08/31 00:00:29;;;;;;;;;3.00;1.00;;;;;18.87;50.23;100828.47;5057164;28;46099;-48
2023/08/31 00:02:55;;;;;;;;;2.00;1.75;;;;;18.87;49.98;100831.16;5057732;28;45402;-48
2023/08/31 00:05:20;;;;;;;;;2.75;1.50;;;;;18.85;50.32;100830.53;5058061;28;45372;-46
2023/08/31 00:07:46;;;;;;;;;3.00;3.00;;;;;18.88;50.17;100835.53;5058052;28;45508;-49
2023/08/31 00:10:11;;;;;;;;;4.00;1.00;;;;;18.90;50.39;100838.84;5057717;28;45395;-46
2023/08/31 00:12:37;;;;;;;;;1.25;1.25;;;;;18.91;50.29;100840.50;5057721;28;45190;-47
2023/08/31 00:15:07;;;;;;;;;2.00;2.00;;;;;18.90;50.42;100842.38;5057727;28;45810;-45
2023/08/31 00:17:32;;;;;;;;;3.00;3.00;;;;;18.90;50.50;100845.06;5056364;28;45471;-44
2023/08/31 00:19:58;;;;;;;;;1.00;1.00;;;;;18.85;50.48;100847.53;5057354;28;47124;-47
2023/08/31 00:22:23;;;;;;;;;1.50;1.50;;;;;18.84;50.65;100847.75;5057269;28;45502;-45
2023/08/31 00:24:50;;;;;;;;;4.75;2.00;;;;;18.85;50.51;100852.09;5057674;28;45505;-49
2023/08/31 00:27:17;;;;;;;;;1.00;1.00;;;;;18.80;50.92;100835.69;5057691;28;45407;-46
2023/08/31 00:29:49;;;;;;;;;3.00;3.00;;;;;18.79;50.72;100845.63;5057351;28;46977;-48
2023/08/31 00:32:15;;;;;;;;;3.50;3.25;;;;;18.80;50.84;100844.63;5056848;28;45423;-49
2023/08/31 00:34:40;;;;;;;;;2.00;1.25;;;;;18.80;50.66;100849.19;5057281;28;45493;-46
2023/08/31 00:37:05;;;;;;;;;2.00;2.00;;;;;18.78;50.85;100843.13;5057375;28;45408;-49
2023/08/31 00:39:31;;;;;;;;;4.75;3.00;;;;;18.74;50.87;100834.59;5056919;28;46289;-44
2023/08/31 00:41:58;;;;;;;;;2.75;2.75;;;;;18.75;50.95;100825.53;5056181;28;45505;-47
2023/08/31 00:44:24;;;;;;;;;2.00;2.00;;;;;18.72;50.90;100812.44;5056498;28;45170;-49
2023/08/31 00:46:49;;;;;;;;;3.75;2.75;;;;;18.71;50.89;100818.88;5057215;28;45330;-49
2023/08/31 00:49:15;;;;;;;;;5.25;2.00;;;;;18.66;50.86;100815.88;5057100;28;47460;-49
2023/08/31 00:51:41;;;;;;;;;4.75;3.00;;;;;18.68;50.73;100830.81;5056940;28;45375;-46
2023/08/31 00:54:07;;;;;;;;;4.00;2.00;;;;;18.61;50.67;100829.94;5057256;28;45313;-45
2023/08/31 00:56:32;;;;;;;;;2.00;1.25;;;;;18.64;51.00;100834.94;5057061;28;45387;-45
2023/08/31 00:58:58;;;;;;;;;3.00;3.00;;;;;18.62;50.82;100828.91;5056814;28;46874;-48
2023/08/31 01:01:46;;;;;;;;;5.25;3.00;;;;;18.59;50.78;100821.22;5056874;28;45371;-49
2023/08/31 01:04:33;;;;;;;;;2.00;2.00;;;;;18.59;51.18;100825.78;5056924;28;45487;-47
2023/08/31 01:07:22;;;;;;;;;3.00;1.75;;;;;18.55;51.12;100825.34;5057120;28;45304;-47
2023/08/31 01:10:24;;;;;;;;;3.00;3.00;;;;;18.53;51.12;100824.69;5056533;28;45560;-45
2023/08/31 01:13:02;;;;;;;;;5.25;2.25;;;;;18.52;51.17;100823.03;5056476;28;45336;-46
2023/08/31 01:15:31;;;;;;;;;2.00;2.00;;;;;18.52;51.40;100824.91;5056694;28;45433;-46
2023/08/31 01:18:00;;;;;;;;;5.00;3.50;;;;;18.52;51.57;100827.59;5056570;28;45316;-48
2023/08/31 01:20:38;;;;;;;;;3.00;3.00;;;;;18.49;51.43;100831.50;5056264;28;45415;-45
2023/08/31 01:23:13;;;;;;;;;3.00;3.00;;;;;18.43;51.45;100826.91;5056357;28;45404;-47
2023/08/31 01:25:39;;;;;;;;;6.25;2.00;;;;;18.43;51.68;100826.91;5056529;28;45429;-46
2023/08/31 01:28:06;;;;;;;;;2.25;2.25;;;;;18.45;51.51;100836.44;5056702;28;45399;-49
2023/08/31 01:30:32;;;;;;;;;3.50;3.00;;;;;18.40;51.48;100832.69;5056164;28;46578;-46
2023/08/31 01:32:57;;;;;;;;;6.50;2.00;;;;;18.43;51.73;100841.22;5056214;28;45349;-49
2023/08/31 01:35:24;;;;;;;;;6.00;2.00;;;;;18.44;51.49;100844.75;5056306;28;45374;-47
2023/08/31 01:38:00;;;;;;;;;2.00;2.00;;;;;18.44;51.50;100840.19;5056615;28;45705;-48
2023/08/31 01:40:33;;;;;;;;;4.50;2.25;;;;;18.43;51.66;100841.22;5056109;28;47464;-49
2023/08/31 01:43:03;;;;;;;;;1.00;1.00;;;;;18.39;51.62;100831.03;5056099;28;45402;-47
2023/08/31 01:45:30;;;;;;;;;1.25;1.25;;;;;18.42;51.49;100838.72;5055069;28;45480;-46
2023/08/31 01:47:56;;;;;;;;;2.00;2.00;;;;;18.43;51.53;100843.09;5056633;28;45500;-46
2023/08/31 01:50:21;;;;;;;;;4.75;3.25;;;;;18.45;51.65;100849.09;5054689;28;46980;-49
2023/08/31 01:52:47;;;;;;;;;6.00;2.00;;;;;18.43;51.75;100848.47;5056268;28;45368;-48
2023/08/31 01:55:15;;;;;;;;;3.00;2.00;;;;;18.41;51.82;100847.81;5056222;28;45312;-46
2023/08/31 01:57:41;;;;;;;;;7.00;4.00;;;;;18.40;51.90;100841.59;5055189;28;45379;-45
2023/08/31 02:00:07;;;;;;;;;4.00;3.00;;;;;18.39;51.74;100839.94;5055689;28;47466;-46
2023/08/31 02:02:33;;;;;;;;;3.00;2.00;;;;;18.41;51.96;100839.72;5055603;28;45435;-47
2023/08/31 02:05:01;;;;;;;;;2.50;2.00;;;;;18.29;51.76;100819.78;5056038;28;45411;-47
2023/08/31 02:07:26;;;;;;;;;2.00;2.00;;;;;18.40;51.84;100830.81;5056134;28;45608;-50
2023/08/31 02:09:52;;;;;;;;;2.25;2.00;;;;;18.40;51.93;100832.69;5055994;28;45489;-46
2023/08/31 02:12:17;;;;;;;;;2.00;2.00;;;;;18.40;51.68;100840.78;5055774;28;45887;-45
2023/08/31 02:14:42;;;;;;;;;3.75;2.00;;;;;18.40;51.89;100838.91;5055919;28;45446;-48
2023/08/31 02:17:08;;;;;;;;;3.50;2.75;;;;;18.42;51.71;100830.66;5056166;28;45667;-49
2023/08/31 02:19:33;;;;;;;;;2.25;2.00;;;;;18.41;51.85;100828.97;5055328;28;45410;-50
2023/08/31 02:21:58;;;;;;;;;2.00;2.00;;;;;18.43;51.84;100832.31;5055831;28;45317;-48
2023/08/31 02:24:23;;;;;;;;;2.00;2.00;;;;;18.42;51.75;100825.25;5055932;28;45357;-49
2023/08/31 02:26:49;;;;;;;;;2.25;2.25;;;;;18.46;51.64;100834.63;5055751;28;45525;-46
2023/08/31 02:29:14;;;;;;;;;5.50;3.00;;;;;18.44;52.00;100824.03;5055522;28;46183;-47
2023/08/31 02:31:41;;;;;;;;;2.00;2.00;;;;;18.41;52.25;100821.75;5055707;28;45383;-49
2023/08/31 02:34:07;;;;;;;;;1.00;1.00;;;;;18.34;52.27;100820.03;5055529;28;45520;-49
2023/08/31 02:36:32;;;;;;;;;3.75;3.75;;;;;18.39;52.53;100823.78;5055487;28;45321;-49
2023/08/31 02:38:57;;;;;;;;;3.00;3.00;;;;;18.37;52.38;100831.25;5055393;28;45499;-50
2023/08/31 02:41:23;;;;;;;;;5.50;3.00;;;;;18.35;52.52;100838.66;5055690;28;45410;-49
2023/08/31 02:43:52;;;;;;;;;6.00;3.00;;;;;18.37;52.42;100838.47;5055679;28;45469;-49
2023/08/31 02:46:17;;;;;;;;;1.50;1.50;;;;;18.38;52.64;100834.75;5055666;28;45386;-48
2023/08/31 02:48:43;;;;;;;;;4.00;2.50;;;;;18.34;52.36;100838.88;5055467;28;45637;-48
2023/08/31 02:51:09;;;;;;;;;2.75;2.75;;;;;18.23;52.49;100832.16;5054094;28;45979;-51
2023/08/31 02:53:34;;;;;;;;;3.00;3.00;;;;;18.31;52.65;100837.38;5055651;28;45496;-49
2023/08/31 02:55:59;;;;;;;;;3.00;3.00;;;;;18.29;52.65;100834.06;5055754;28;45479;-47
2023/08/31 02:58:25;;;;;;;;;2.25;2.25;;;;;18.30;52.61;100832.22;5055498;28;46098;-45
2023/08/31 03:00:50;;;;;;;;;2.50;2.00;;;;;18.25;52.65;100826.59;5055525;28;45378;-46
2023/08/31 03:03:16;;;;;;;;;1.50;1.50;;;;;18.32;52.78;100840.91;5054090;28;45886;-48
2023/08/31 03:05:42;;;;;;;;;5.00;3.25;;;;;18.29;52.85;100836.78;5055555;28;45364;-46
2023/08/31 03:08:07;;;;;;;;;5.75;4.00;;;;;18.28;52.81;100835.06;5055943;28;46629;-48
2023/08/31 03:10:32;;;;;;;;;4.50;3.00;;;;;18.25;52.89;100827.41;5058614;28;45471;-49
2023/08/31 03:12:58;;;;;;;;;5.00;2.00;;;;;18.24;52.11;100828.41;5058683;28;45462;-49
2023/08/31 03:15:23;;;;;;;;;2.00;2.00;;;;;18.22;53.04;100833.19;5058847;28;45450;-47
2023/08/31 03:17:48;;;;;;;;;8.75;3.00;;;;;18.18;53.13;100829.22;5058374;28;46156;-45
2023/08/31 03:20:14;;;;;;;;;4.25;3.00;;;;;18.15;53.29;100829.59;5058121;28;45282;-47
2023/08/31 03:22:39;;;;;;;;;4.00;2.50;;;;;18.18;53.28;100827.34;5058611;28;45420;-47
2023/08/31 03:25:05;;;;;;;;;7.00;2.67;;;;;18.18;53.28;100821.13;5058557;28;45364;-46
2023/08/31 03:27:30;;;;;;;;;2.50;2.00;;;;;18.15;53.20;100819.66;5058325;28;45966;-46
2023/08/31 03:29:55;;;;;;;;;4.00;2.00;;;;;18.11;53.49;100815.69;5058493;28;45882;-46
2023/08/31 03:32:21;;;;;;;;;3.00;2.00;;;;;17.86;53.41;100784.81;5058469;28;45411;-46
2023/08/31 03:34:46;;;;;;;;;2.00;1.75;;;;;18.10;53.45;100830.19;5058421;28;45445;-45
2023/08/31 03:37:11;;;;;;;;;4.25;3.00;;;;;18.10;53.65;100827.47;5057798;28;45351;-46
2023/08/31 03:39:37;;;;;;;;;5.00;3.00;;;;;18.10;53.72;100822.09;5058053;28;45506;-47
2023/08/31 03:42:02;;;;;;;;;6.00;5.00;;;;;18.10;53.58;100823.97;5058195;28;45482;-48
2023/08/31 03:44:28;;;;;;;;;9.67;6.00;;;;;18.09;53.77;100816.91;5058285;28;45331;-46
2023/08/31 03:46:53;;;;;;;;;2.50;2.50;;;;;18.08;53.32;100812.56;5058000;28;46385;-47
2023/08/31 03:49:18;;;;;;;;;5.25;3.00;;;;;18.10;53.56;100819.41;5058096;28;45270;-47
2023/08/31 03:51:44;;;;;;;;;9.00;3.00;;;;;18.07;53.47;100818.94;5057998;28;45294;-49
2023/08/31 03:54:09;;;;;;;;;7.00;2.33;;;;;18.01;53.65;100815.19;5058424;28;45497;-48
2023/08/31 03:56:34;;;;;;;;;4.50;3.00;;;;;18.04;53.68;100822.88;5057806;28;46244;-48
2023/08/31 03:59:04;;;;;;;;;2.00;0.50;;;;;18.03;53.50;100828.44;5057857;28;46768;-47
2023/08/31 04:01:29;;;;;;;;;4.00;2.00;;;;;17.99;53.93;100816.41;5058465;28;45438;-48
2023/08/31 04:03:55;;;;;;;;;3.75;1.75;;;;;17.97;53.84;100813.91;5058253;28;45613;-45
2023/08/31 04:06:20;;;;;;;;;2.00;2.00;;;;;17.92;53.87;100814.50;5057795;28;45694;-46
2023/08/31 04:08:45;;;;;;;;;4.00;4.00;;;;;17.90;54.21;100824.59;5057499;28;45517;-47
2023/08/31 04:11:10;;;;;;;;;6.25;3.00;;;;;17.91;54.24;100830.84;5056536;28;45903;-49
2023/08/31 04:13:36;;;;;;;;;4.00;2.67;;;;;17.82;54.19;100813.13;5058101;28;45339;-46
2023/08/31 04:16:02;;;;;;;;;6.00;2.00;;;;;17.90;54.35;100835.38;5056046;28;45457;-48
2023/08/31 04:18:27;;;;;;;;;7.00;2.00;;;;;17.90;54.48;100837.22;5057656;28;45298;-46
2023/08/31 04:20:54;;;;;;;;;5.00;3.67;;;;;17.90;54.12;100839.91;5056329;28;45538;-46
2023/08/31 04:23:20;;;;;;;;;3.50;3.00;;;;;17.86;54.26;100823.31;5057920;28;45334;-46
2023/08/31 04:25:47;;;;;;;;;3.50;2.00;;;;;17.89;54.38;100831.00;5056783;28;46544;-43
2023/08/31 04:28:12;;;;;;;;;5.50;2.00;;;;;17.83;54.46;100821.03;5057367;28;45419;-50
2023/08/31 04:30:39;;;;;;;;;4.50;2.00;;;;;17.82;54.80;100824.72;5057449;28;45445;-49
2023/08/31 04:33:06;;;;;;;;;5.67;2.67;;;;;17.81;54.57;100822.25;5057387;28;45515;-47
2023/08/31 04:35:31;;;;;;;;;2.00;2.00;;;;;17.84;54.88;100833.47;5056193;28;46121;-48
2023/08/31 04:37:57;;;;;;;;;4.00;2.00;;;;;17.82;54.88;100835.50;5057025;28;45317;-47
2023/08/31 04:40:23;;;;;;;;;3.00;2.67;;;;;17.76;55.06;100840.81;5057357;28;45462;-49
2023/08/31 04:42:48;;;;;;;;;3.33;3.00;;;;;17.77;55.15;100845.16;5057352;28;45693;-47
2023/08/31 04:45:13;;;;;;;;;2.33;2.33;;;;;17.75;55.49;100839.16;5056876;28;45415;-47
2023/08/31 04:47:39;;;;;;;;;3.00;3.00;;;;;17.76;55.25;100840.81;5055774;28;45365;-46
2023/08/31 04:50:06;;;;;;;;;3.33;3.00;;;;;17.74;55.49;100850.91;5057054;28;45569;-50
2023/08/31 04:52:32;;;;;;;;;6.00;3.00;;;;;17.67;55.58;100840.09;5057289;28;45513;-46
2023/08/31 04:54:57;;;;;;;;;6.00;3.33;;;;;17.73;55.63;100852.75;5056794;28;46133;-45
2023/08/31 04:57:23;;;;;;;;;3.00;3.00;;;;;17.70;55.95;100848.59;5056382;28;45394;-47
2023/08/31 04:59:49;;;;;;;;;5.00;4.00;;;;;17.72;55.69;100851.09;5056839;28;45443;-45
2023/08/31 05:02:14;;;;;;;;;2.67;2.33;;;;;17.73;55.75;100847.38;5055675;28;45460;-44
2023/08/31 05:04:39;;;;;;;;;3.67;3.67;;;;;17.73;55.88;100858.13;5056630;28;45672;-47
2023/08/31 05:07:05;;;;;;;;;5.00;4.00;;;;;17.74;55.71;100864.34;5056705;28;45316;-48
2023/08/31 05:09:34;;;;;;;;;6.33;3.67;;;;;17.74;55.52;100851.78;5056921;28;45396;-49
2023/08/31 05:12:00;;;;;;;;;5.00;3.00;;;;;17.64;55.36;100835.91;5056868;28;45664;-46
2023/08/31 05:14:25;;;;;;;;;5.33;3.33;;;;;17.77;55.52;100850.56;5056674;28;46389;-50
2023/08/31 05:16:51;;;;;;;;;6.00;3.00;;;;;17.75;55.06;100849.94;5056429;28;45651;-50
2023/08/31 05:19:16;;;;;;;;;2.33;2.00;;;;;17.76;55.14;100848.91;5056606;28;45353;-49
2023/08/31 05:21:42;;;;;;;;;3.67;2.00;;;;;17.74;55.29;100849.09;5056734;28;45289;-46
2023/08/31 05:24:07;;;;;;;;;4.00;1.00;;;;;17.78;54.96;100865.66;5056302;28;47052;-47
2023/08/31 05:26:32;;;;;;;;;2.00;2.00;;;;;17.75;55.00;100855.31;5056519;28;45396;-47
2023/08/31 05:28:58;;;;;;;;;3.00;3.00;;;;;17.77;55.27;100862.16;5056443;28;45849;-45
2023/08/31 05:31:24;;;;;;;;;5.00;3.00;;;;;17.75;54.98;100856.13;5055133;28;45473;-46
2023/08/31 05:33:49;;;;;;;;;5.00;3.67;;;;;17.78;54.98;100869.22;5056158;28;46195;-52
2023/08/31 05:36:14;;;;;;;;;5.00;5.00;;;;;17.76;55.08;100865.03;5055839;28;45342;-49
2023/08/31 05:38:40;;;;;;;;;6.33;4.00;;;;;17.82;54.92;100877.72;5056271;28;45476;-46
2023/08/31 05:41:09;;;;;;;;;5.00;3.00;;;;;17.80;54.78;100871.72;5056399;28;45469;-47
2023/08/31 05:43:35;;;;;;;;;4.33;2.67;;;;;17.84;55.29;100876.50;5056073;28;47468;-49
2023/08/31 05:46:01;;;;;;;;;2.00;2.00;;;;;17.84;54.96;100873.81;5056251;28;45380;-45
2023/08/31 05:48:26;;;;;;;;;3.00;3.00;;;;;17.88;55.31;100876.97;5056382;28;45444;-48
2023/08/31 05:50:53;;;;;;;;;4.67;4.00;;;;;17.84;55.32;100873.81;5056127;28;45505;-47
2023/08/31 05:53:18;;;;;;;;;6.00;4.00;;;;;17.82;55.80;100878.53;5055933;28;47229;-46
2023/08/31 05:55:44;;;;;;;;;6.67;5.00;;;;;17.83;55.46;100880.25;5055996;28;45368;-46
2023/08/31 05:58:09;;;;;;;;;8.67;4.00;;;;;17.88;55.71;100885.88;5056103;28;45328;-46
2023/08/31 06:00:35;;;;;;;;;4.00;4.00;;;;;17.90;55.27;100880.28;5056113;28;45358;-45
2023/08/31 06:03:01;;;;;;;;;4.00;3.00;;;;;17.93;55.66;100886.13;5055843;28;46959;-49
2023/08/31 06:05:27;;;;;;;;;4.00;4.00;;;;;17.92;55.55;100884.47;5056007;28;45364;-48
2023/08/31 06:07:53;;;;;;;;;4.33;4.00;;;;;17.91;55.69;100895.44;5056178;28;45441;-47
2023/08/31 06:10:18;;;;;;;;;6.00;5.00;;;;;17.90;55.80;100891.88;5054689;28;45439;-49
2023/08/31 06:12:44;;;;;;;;;9.00;5.00;;;;;17.88;55.76;100893.94;5055579;28;45349;-45
2023/08/31 06:15:09;;;;;;;;;5.00;2.67;;;;;17.90;55.76;100891.88;5055814;28;45300;-47
2023/08/31 06:17:35;;;;;;;;;4.00;3.67;;;;;17.89;56.16;100894.78;5056040;28;45441;-46
2023/08/31 06:20:00;;;;;;;;;6.00;3.33;;;;;17.80;55.74;100883.31;5056042;28;45243;-44
2023/08/31 06:22:26;;;;;;;;;4.00;2.67;;;;;17.92;55.63;100895.22;5055579;28;45842;-47
2023/08/31 06:24:51;;;;;;;;;5.33;4.00;;;;;17.95;55.66;100892.16;5055660;28;45569;-46
2023/08/31 06:27:17;;;;;;;;;5.67;3.00;;;;;17.94;55.54;100886.97;5055923;28;45358;-47
2023/08/31 06:29:43;;;;;;;;;7.00;4.00;;;;;17.98;55.92;100890.94;5055661;28;45422;-45
2023/08/31 06:32:08;;;;;;;;;4.67;4.00;;;;;18.06;55.53;100896.19;5055369;28;45437;-44
2023/08/31 06:34:34;;;;;;;;;5.00;3.33;;;;;18.07;55.05;100887.09;5055588;28;45906;-48
2023/08/31 06:36:59;;;;;;;;;3.33;3.00;;;;;18.12;55.48;100889.22;5055385;28;45985;-46
2023/08/31 06:39:24;;;;;;;;;9.33;3.67;;;;;18.13;55.60;100880.94;5056118;28;45429;-47
2023/08/31 06:41:50;;;;;;;;;3.67;3.00;;;;;18.28;55.24;100898.88;5055473;28;46084;-45
2023/08/31 06:44:16;;;;;;;;;5.33;4.00;;;;;18.26;55.29;100892.88;5057868;28;45417;-49
2023/08/31 06:46:42;;;;;;;;;6.00;5.67;;;;;18.32;55.27;100898.28;5059112;28;45460;-47
2023/08/31 06:49:07;;;;;;;;;9.00;4.00;;;;;18.31;55.40;100891.25;5057914;28;45351;-46
2023/08/31 06:51:33;;;;;;;;;4.33;4.33;;;;;18.30;55.41;100891.47;5055406;28;48161;-42
2023/08/31 06:54:07;;;;;;;;;5.33;3.00;;;;;18.39;55.47;100901.88;5055601;28;45719;-48
2023/08/31 06:56:33;;;;;;;;;3.00;3.00;;;;;18.49;55.26;100904.25;5055770;28;45363;-45
2023/08/31 06:58:58;;;;;;;;;4.75;2.50;;;;;18.56;55.05;100897.06;5055531;28;45767;-43
2023/08/31 07:01:24;;;;;;;;;4.67;3.00;;;;;18.69;54.34;100902.56;5055135;28;46253;-42
2023/08/31 07:03:49;;;;;;;;;6.33;4.00;;;;;18.74;54.30;100909.25;5055444;28;45369;-44
2023/08/31 07:06:14;;;;;;;;;4.00;3.67;;;;;18.74;53.95;100906.53;5055358;28;45370;-42
2023/08/31 07:08:40;;;;;;;;;7.75;3.00;;;;;18.81;54.08;100916.34;5055617;28;45487;-46
2023/08/31 07:11:06;;;;;;;;;7.00;4.00;;;;;18.88;53.73;100908.31;5054846;28;46538;-45
2023/08/31 07:13:31;;;;;;;;;7.00;3.25;;;;;18.90;53.52;100906.25;5055297;28;45632;-44
2023/08/31 07:15:57;;;;;;;;;8.33;5.33;;;;;18.97;53.48;100907.13;5055258;28;45471;-44
2023/08/31 07:18:22;;;;;;;;;3.00;2.75;;;;;19.05;53.36;100914.22;5054531;28;45381;-43
2023/08/31 07:20:48;;;;;;;;;4.00;4.00;;;;;19.06;53.55;100926.69;5054610;28;46100;-43
2023/08/31 07:23:13;;;;;;;;;12.00;8.00;;;;;19.07;53.62;100923.78;5055412;28;45910;-46
2023/08/31 07:25:39;;;;;;;;;11.67;9.67;;;;;19.04;53.07;100916.06;5054289;28;45883;-46
2023/08/31 07:28:05;;;;;;;;;4.00;4.00;;;;;19.12;53.27;100929.41;5055089;28;45509;-45
2023/08/31 07:30:30;;;;;;;;;0.00;0.00;;;;;19.15;52.97;100926.31;5054804;28;45723;-45
2023/08/31 07:32:56;;;;;;;;;5.75;3.00;;;;;19.17;52.94;100923.41;5054556;28;45471;-45
2023/08/31 07:35:21;;;;;;;;;4.75;3.00;;;;;19.16;52.99;100921.75;5051405;28;45458;-46
2023/08/31 07:37:46;;;;;;;;;6.00;3.00;;;;;19.11;52.92;100925.03;5055294;28;45666;-46
2023/08/31 07:40:12;;;;;;;;;3.75;3.75;;;;;19.18;52.75;100944.81;5054842;28;45285;-46
2023/08/31 07:42:37;;;;;;;;;3.00;3.00;;;;;19.16;52.56;100936.06;5055073;28;45348;-47
2023/08/31 07:45:05;;;;;;;;;4.00;3.50;;;;;19.17;52.75;100939.59;5054221;28;45441;-43
2023/08/31 07:47:31;;;;;;;;;13.33;10.67;;;;;19.21;52.84;100940.84;5055352;28;46349;-46
2023/08/31 07:49:56;;;;;;;;;3.25;3.25;;;;;19.31;52.37;100954.00;5054673;28;46747;-45
2023/08/31 07:52:21;;;;;;;;;5.00;3.75;;;;;19.39;52.29;100943.06;5054096;28;45385;-44
2023/08/31 07:54:47;;;;;;;;;5.25;5.25;;;;;19.45;52.09;100947.63;5049324;28;45620;-42
2023/08/31 07:57:12;;;;;;;;;8.75;4.25;;;;;19.53;52.18;100946.63;5053318;28;45941;-43
2023/08/31 07:59:39;;;;;;;;;4.00;4.00;;;;;19.66;51.27;100950.25;5054688;28;47304;-45
2023/08/31 08:02:05;;;;;;;;;5.00;3.00;;;;;19.85;51.22;100953.25;5054558;28;45506;-43
2023/08/31 08:04:31;;;;;;;;;5.25;4.25;;;;;20.21;50.58;100950.22;5054665;28;45505;-43
2023/08/31 08:06:56;;;;;;;;;6.50;5.50;;;;;20.39;49.68;100953.16;5054762;28;45301;-45
2023/08/31 08:09:21;;;;;;;;;7.00;5.00;;;;;20.57;50.20;100957.16;5054153;28;46447;-44
2023/08/31 08:11:47;;;;;;;;;4.50;3.00;;;;;20.74;49.44;100952.19;5054758;28;45363;-45
2023/08/31 08:14:12;;;;;;;;;4.50;4.50;;;;;20.82;48.79;100949.25;5055091;28;46042;-45
2023/08/31 08:16:37;;;;;;;;;4.25;3.00;;;;;20.83;48.99;100948.22;5054642;28;45397;-44
2023/08/31 08:19:03;;;;;;;;;3.50;2.00;;;;;20.90;48.51;100943.63;5053974;28;46635;-45
2023/08/31 08:21:28;;;;;;;;;3.00;3.00;;;;;21.00;47.99;100951.31;5054037;28;45487;-45
2023/08/31 08:23:53;;;;;;;;;4.00;4.00;;;;;21.03;48.28;100940.09;5054737;28;45436;-45
2023/08/31 08:26:19;;;;;;;;;4.25;3.00;;;;;21.03;47.85;100932.81;5054474;28;45556;-47
2023/08/31 08:28:45;;;;;;;;;3.00;3.00;;;;;21.31;47.97;100945.22;5054017;28;45430;-45
2023/08/31 08:31:11;;;;;;;;;7.00;3.00;;;;;21.49;47.25;100939.13;5054075;28;45798;-44
2023/08/31 08:33:36;;;;;;;;;3.25;3.25;;;;;21.75;46.81;100930.09;5054328;28;45323;-46
2023/08/31 08:36:02;;;;;;;;;5.00;5.00;;;;;22.11;45.10;100935.72;5054347;28;45391;-45
2023/08/31 08:38:27;;;;;;;;;8.25;2.00;;;;;22.33;45.07;100929.97;5054135;28;45460;-44
2023/08/31 08:40:52;;;;;;;;;4.00;2.00;;;;;22.33;45.66;100935.38;5053927;28;45553;-45
2023/08/31 08:43:25;;;;;;;;;3.75;3.00;;;;;22.27;45.23;100933.56;5053660;28;45398;-44
2023/08/31 08:45:51;;;;;;;;;4.25;2.25;;;;;22.27;45.16;100933.56;5054351;28;45431;-46
2023/08/31 08:48:18;;;;;;;;;3.00;2.60;;;;;22.17;44.87;100939.47;5053544;28;46526;-46
2023/08/31 08:50:45;;;;;;;;;3.60;2.40;;;;;22.03;44.77;100945.97;5054111;28;45443;-48
2023/08/31 08:53:11;;;;;;;;;5.60;3.40;;;;;21.75;45.35;100944.47;5053354;28;45537;-48
2023/08/31 08:55:37;;;;;;;;;6.50;3.25;;;;;21.68;45.62;100958.03;5054171;28;45557;-49
2023/08/31 08:58:06;;;;;;;;;6.00;3.00;;;;;21.59;45.52;100943.06;5053123;28;45417;-47
2023/08/31 09:00:32;;;;;;;;;2.60;2.20;;;;;21.50;45.61;100960.59;5052167;28;45500;-46
2023/08/31 09:02:59;;;;;;;;;4.00;4.00;;;;;21.31;45.85;100951.44;5054125;28;45810;-46
2023/08/31 09:05:24;;;;;;;;;7.00;5.00;;;;;20.77;46.61;100870.63;5053289;28;45408;-45
2023/08/31 09:08:10;;;;;;;;;4.75;3.00;;;;;21.16;47.16;100954.41;5053208;28;45559;-54
2023/08/31 09:10:37;;;;;;;;;7.25;4.00;;;;;21.07;46.92;100957.53;5053032;28;45428;-51
2023/08/31 09:13:10;;;;;;;;;5.00;3.00;;;;;20.90;46.85;100960.69;5053540;28;45513;-45
2023/08/31 09:15:40;;;;;;;;;8.75;4.25;;;;;20.75;47.10;100948.41;5053561;28;45535;-46
2023/08/31 09:18:06;;;;;;;;;4.00;3.00;;;;;20.79;47.93;100957.78;5053377;28;47166;-49
2023/08/31 09:20:32;;;;;;;;;4.50;2.75;;;;;20.84;48.16;100953.41;5053326;28;45459;-48
2023/08/31 09:22:57;;;;;;;;;5.00;4.25;;;;;21.02;48.14;100947.34;5051933;28;45372;-47
2023/08/31 09:25:23;;;;;;;;;4.75;2.75;;;;;21.30;48.23;100947.09;5053893;28;45407;-49
2023/08/31 09:27:48;;;;;;;;;5.50;4.00;;;;;21.97;47.28;100952.28;5053146;28;46199;-46
2023/08/31 09:30:14;;;;;;;;;5.00;3.75;;;;;22.64;45.71;100946.22;5050908;28;45396;-50
2023/08/31 09:32:41;;;;;;;;;8.00;4.00;;;;;22.99;44.38;100937.56;5053086;28;45474;-48
2023/08/31 09:35:10;;;;;;;;;7.50;4.00;;;;;23.18;44.03;100953.91;5053279;28;45494;-46
2023/08/31 09:37:36;;;;;;;;;5.80;3.00;;;;;23.11;44.05;100949.34;5053004;28;46684;-44
2023/08/31 09:40:03;;;;;;;;;4.00;4.00;;;;;23.05;44.50;100941.25;5052808;28;45219;-47
2023/08/31 09:42:40;;;;;;;;;5.00;3.80;;;;;22.85;44.65;100944.97;5053361;28;45356;-47
2023/08/31 09:45:06;;;;;;;;;4.25;3.25;;;;;22.82;44.58;100926.44;5053039;28;45478;-46
2023/08/31 09:47:31;;;;;;;;;2.75;2.75;;;;;22.90;44.32;100942.47;5052732;28;45490;-48
2023/08/31 09:49:58;;;;;;;;;5.00;4.00;;;;;22.66;44.77;100932.41;5052547;28;45454;-44
2023/08/31 09:52:25;;;;;;;;;6.00;4.00;;;;;22.39;45.62;100931.81;5052780;28;45551;-45
2023/08/31 09:54:53;;;;;;;;;3.75;2.75;;;;;22.12;46.13;100932.00;5050597;28;45446;-46
2023/08/31 09:57:20;;;;;;;;;6.00;3.40;;;;;21.70;46.88;100917.22;5052553;28;45731;-46
2023/08/31 09:59:46;;;;;;;;;4.00;4.00;;;;;21.64;47.10;100945.97;5052226;28;45560;-46
2023/08/31 10:02:16;;;;;;;;;7.25;3.00;;;;;21.53;47.59;100940.38;5052772;28;45545;-47
2023/08/31 10:04:42;;;;;;;;;4.00;4.00;;;;;21.47;47.80;100941.25;5053017;28;45453;-42
2023/08/31 10:07:11;;;;;;;;;6.50;3.00;;;;;21.45;48.18;100946.03;5050685;28;45617;-46
2023/08/31 10:09:37;;;;;;;;;5.80;4.60;;;;;21.33;48.42;100938.59;5052370;28;45533;-47
2023/08/31 10:12:04;;;;;;;;;7.00;3.50;;;;;21.26;48.45;100931.50;5052824;28;45434;-50
2023/08/31 10:14:30;;;;;;;;;4.25;3.00;;;;;21.07;48.95;100917.81;5052705;28;45486;-47
2023/08/31 10:16:57;;;;;;;;;7.00;6.50;;;;;21.03;48.66;100916.56;5052194;28;46360;-49
2023/08/31 10:19:22;;;;;;;;;2.40;2.40;;;;;21.13;49.74;100929.66;5055097;28;45498;-50
2023/08/31 10:21:49;;;;;;;;;7.25;5.00;;;;;21.09;49.84;100914.88;5055935;28;45465;-45
2023/08/31 10:24:14;;;;;;;;;7.00;4.50;;;;;21.15;50.12;100909.47;5055707;28;45865;-47
2023/08/31 10:26:39;;;;;;;;;5.50;4.25;;;;;21.09;50.22;100921.13;5055900;28;46037;-46
2023/08/31 10:29:05;;;;;;;;;7.25;5.50;;;;;21.06;51.58;100926.13;5055413;28;45470;-45
2023/08/31 10:31:32;;;;;;;;;11.00;8.00;;;;;21.13;51.96;100935.88;5055521;28;45993;-48
2023/08/31 10:34:03;;;;;;;;;5.50;3.00;;;;;21.13;50.96;100919.66;5055727;28;45388;-48
2023/08/31 10:36:55;;;;;;;;;6.00;4.00;;;;;21.03;50.45;100919.28;5055110;28;45562;-46
2023/08/31 10:39:20;;;;;;;;;7.60;5.60;;;;;20.97;51.76;100908.47;5050945;28;45446;-47
2023/08/31 10:41:57;;;;;;;;;7.50;6.00;;;;;20.86;52.24;100909.94;5055557;28;45450;-48
2023/08/31 10:44:26;;;;;;;;;6.75;4.50;;;;;20.82;51.60;100922.22;5055256;28;45508;-47
2023/08/31 10:46:53;;;;;;;;;7.00;5.00;;;;;20.74;52.34;100933.25;5055421;28;47070;-47
2023/08/31 10:49:23;;;;;;;;;6.25;6.00;;;;;20.64;51.48;100923.66;5055407;28;45480;-47
2023/08/31 10:52:16;;;;;;;;;3.75;3.25;;;;;20.59;52.25;100919.94;5052924;28;45593;-48
2023/08/31 10:54:41;;;;;;;;;9.75;7.50;;;;;20.57;52.24;100922.84;5054332;28;45437;-46
2023/08/31 10:57:07;;;;;;;;;7.00;4.25;;;;;20.56;52.48;100915.78;5055246;28;46444;-46
2023/08/31 10:59:50;;;;;;;;;7.50;6.25;;;;;20.63;52.84;100913.06;5055881;28;45963;-49
2023/08/31 11:02:35;;;;;;;;;9.50;6.50;;;;;20.83;51.93;100911.19;5058739;28;45405;-47
2023/08/31 11:05:11;;;;;;;;;5.75;4.25;;;;;21.03;52.22;100913.03;5058743;28;45273;-48
2023/08/31 11:07:40;;;;;;;;;3.00;3.00;;;;;21.15;50.70;100906.75;5054747;28;47247;-44
2023/08/31 11:10:09;;;;;;;;;6.60;4.00;;;;;21.13;50.69;100903.44;5058341;28;45407;-49
2023/08/31 11:12:34;;;;;;;;;7.75;4.50;;;;;21.06;49.86;100905.31;5058261;28;45408;-45
2023/08/31 11:15:00;;;;;;;;;7.75;3.50;;;;;20.97;50.22;100901.16;5058377;28;45301;-45
2023/08/31 11:17:25;;;;;;;;;3.25;3.00;;;;;20.92;50.37;100896.41;5058106;28;45363;-44
2023/08/31 11:19:50;;;;;;;;;6.00;4.00;;;;;20.91;50.45;100894.75;5055637;28;45582;-45
2023/08/31 11:22:16;;;;;;;;;6.25;6.25;;;;;20.86;50.99;100899.97;5054865;28;45368;-46